Ama, Louisiana
Current Conditions -  °F | °C
As of 1:53 PM on Friday 28 Nov 2014 (Local Time) from KMSY Reporting Station
Few Clouds Few Clouds  
Wind Chill: 61°   Ceiling: Unl
Heat Index: 61°   Visibility: 10mi
Dew Point: 39°   Wind: 7mph
Humidity: 44%   Direction: 140°SE
Pressure: 30.31"   Gusts: NA
Location:  29.95°N, 90.3°W
Report Text: KMSY 281953Z 14006KT 10SM FEW010 16/04 A3031 RMK AO2 SLP268 FU FEW010 T01610039
Loading
Personal Weather Stations






























Interactive Weather Map New forecast layout! Learn more

10-Day Weather Forecast

Advertisements
Track Severe Weather on mobile